KBIH/BIH METAR and TAF weather

Enter ICAO airport designator
Station Type Date Time Source
KBIH METAR 2020/11/28 19:56 UTC NOAA

KBIH 281956Z AUTO 00000KT 10SM CLR 13/M15 A3027 RMK AO2 SLP247 T01281150


Station Type Date Time Source
KBIH Decoded METAR 2020/11/28 19:56 UTC NOAA

BISHOP AIRPORT, CA, United States (KBIH) 37-22N 118-22W 1253M
Nov 28, 2020 - 02:56 PM EST / 2020.11.28 1956 UTC
Wind: Calm:0
Visibility: 10 mile(s):0
Sky conditions: clear
Temperature: 55.0 F (12.8 C)
Dew Point: 5.0 F (-15.0 C)
Relative Humidity: 12%
Pressure (altimeter): 30.27 in. Hg (1025 hPa)
ob: KBIH 281956Z AUTO 00000KT 10SM CLR 13/M15 A3027 RMK AO2 SLP247 T01281150
cycle: 20

Station Type Date Time Source
KBIH TAF 2020/11/28 18:30 UTC NOAA

TAF KBIH 281728Z 2818/2918 33005KT P6SM SKC
FM282200 17005KT P6SM SKC
FM290300 34006KT P6SM SKC

Example: see airport list